Time;durP1;ratioP1;P1;durP2;ratioP2;P2;SDS_P1;SDS_P2;PMS_P1;PMS_P2;Temp;Humidity;BMP_temperature;BMP_pressure;BME280_temperature;BME280_humidity;BME280_pressure;Samples;Min_cycle;Max_cycle;Signal;HPM_P1;HPM_P2
2024/04/07 00:00:19;;;;;;;3.50;2.70;;;9.50;99.90;;;;;;5043482;28;20484;-39
2024/04/07 00:02:46;;;;;;;3.83;2.40;;;9.50;99.90;;;;;;5040134;28;20033;-37
2024/04/07 00:05:12;;;;;;;2.75;2.50;;;9.50;99.90;;;;;;5041021;28;20021;-40
2024/04/07 00:07:37;;;;;;;2.60;2.40;;;9.70;99.90;;;;;;5038365;28;20483;-40
2024/04/07 00:10:03;;;;;;;3.63;2.47;;;9.80;99.90;;;;;;5041044;28;20062;-36
2024/04/07 00:12:29;;;;;;;4.80;2.50;;;10.00;99.90;;;;;;5042031;28;20028;-33
2024/04/07 00:14:55;;;;;;;2.67;2.45;;;10.10;99.90;;;;;;5042459;28;20549;-36
2024/04/07 00:17:20;;;;;;;4.93;3.35;;;10.00;99.90;;;;;;5043143;28;20051;-33
2024/04/07 00:19:46;;;;;;;3.67;2.80;;;10.10;99.90;;;;;;5040764;28;20387;-35
2024/04/07 00:22:12;;;;;;;3.70;2.95;;;10.20;99.90;;;;;;5040511;28;20045;-34
2024/04/07 00:24:38;;;;;;;4.28;2.95;;;10.10;99.90;;;;;;5040247;28;20029;-33
2024/04/07 00:27:03;;;;;;;3.65;2.65;;;9.90;99.90;;;;;;5044261;28;20040;-33
2024/04/07 00:29:29;;;;;;;3.42;3.08;;;9.80;99.90;;;;;;5040854;28;20491;-34
2024/04/07 00:31:55;;;;;;;4.63;2.60;;;9.40;99.90;;;;;;5038920;28;20094;-33
2024/04/07 00:34:21;;;;;;;4.43;3.35;;;9.00;99.90;;;;;;5043292;28;20135;-34
2024/04/07 00:36:47;;;;;;;5.03;2.95;;;8.80;99.90;;;;;;5055423;28;20032;-35
2024/04/07 00:39:13;;;;;;;3.42;3.13;;;8.80;99.90;;;;;;5045585;28;20029;-33
2024/04/07 00:41:38;;;;;;;4.72;2.78;;;9.10;99.90;;;;;;5041968;28;20556;-39
2024/04/07 00:44:04;;;;;;;4.47;2.50;;;9.30;99.90;;;;;;5040309;28;20469;-35
2024/04/07 00:46:30;;;;;;;3.40;2.80;;;9.50;99.90;;;;;;5040845;28;20474;-36
2024/04/07 00:48:56;;;;;;;3.10;2.78;;;9.60;99.90;;;;;;5043693;28;20079;-33
2024/04/07 00:51:23;;;;;;;3.13;2.65;;;9.60;99.90;;;;;;5042660;28;20549;-35
2024/04/07 00:53:49;;;;;;;2.78;2.45;;;9.70;99.90;;;;;;5044367;28;20111;-34
2024/04/07 00:56:14;;;;;;;2.90;2.58;;;9.70;99.90;;;;;;5043242;28;20043;-34
2024/04/07 00:58:41;;;;;;;3.88;3.00;;;9.60;99.90;;;;;;5044609;28;20774;-35
2024/04/07 01:01:07;;;;;;;3.30;2.88;;;9.50;99.90;;;;;;5043308;28;20499;-33
2024/04/07 01:03:33;;;;;;;4.22;2.63;;;9.50;99.90;;;;;;5042002;28;20029;-33
2024/04/07 01:05:59;;;;;;;5.22;2.83;;;9.60;99.90;;;;;;5042091;28;20036;-34
2024/04/07 01:08:25;;;;;;;2.83;2.22;;;9.70;99.90;;;;;;5043418;28;20025;-35
2024/04/07 01:10:51;;;;;;;3.90;2.63;;;9.80;99.90;;;;;;5042988;28;20032;-35
2024/04/07 01:13:17;;;;;;;2.47;2.28;;;9.90;99.90;;;;;;5040112;28;20067;-40
2024/04/07 01:15:43;;;;;;;3.38;2.83;;;9.90;99.90;;;;;;5039191;28;20029;-34
2024/04/07 01:18:09;;;;;;;3.17;2.65;;;9.80;99.90;;;;;;5040290;28;20426;-38
2024/04/07 01:20:35;;;;;;;5.07;3.10;;;9.80;99.90;;;;;;5036942;28;20035;-36
2024/04/07 01:23:01;;;;;;;3.75;2.75;;;9.90;99.90;;;;;;5038932;28;20033;-35
2024/04/07 01:25:27;;;;;;;5.43;3.78;;;9.90;99.90;;;;;;5039090;28;20051;-34
2024/04/07 01:27:57;;;;;;;4.03;2.55;;;9.80;99.90;;;;;;5042550;28;22118;-38
2024/04/07 01:30:23;;;;;;;3.58;2.83;;;9.70;99.90;;;;;;5041928;28;20492;-36
2024/04/07 01:32:49;;;;;;;2.50;2.30;;;9.50;99.90;;;;;;5041171;28;20394;-34
2024/04/07 01:35:15;;;;;;;3.22;2.40;;;9.10;99.90;;;;;;5043024;28;20028;-33
2024/04/07 01:37:41;;;;;;;3.13;2.83;;;9.20;99.90;;;;;;5041100;28;20029;-36
2024/04/07 01:40:09;;;;;;;3.42;2.75;;;9.40;99.90;;;;;;5038300;28;20033;-36
2024/04/07 01:42:35;;;;;;;3.03;2.75;;;9.40;99.90;;;;;;5038138;28;20047;-33
2024/04/07 01:45:01;;;;;;;2.78;2.58;;;9.50;99.90;;;;;;5042886;28;20033;-34
2024/04/07 01:47:27;;;;;;;3.08;2.80;;;9.60;99.90;;;;;;5037277;28;20552;-33
2024/04/07 01:49:53;;;;;;;3.78;3.08;;;9.60;99.90;;;;;;5038629;28;20037;-33
2024/04/07 01:52:18;;;;;;;2.55;2.35;;;9.60;99.90;;;;;;5041571;28;20040;-32
2024/04/07 01:54:44;;;;;;;3.38;2.33;;;9.50;99.90;;;;;;5039871;28;20132;-39
2024/04/07 01:57:11;;;;;;;3.60;2.78;;;9.60;99.90;;;;;;5040625;28;20491;-34
2024/04/07 01:59:36;;;;;;;3.80;2.90;;;9.60;99.90;;;;;;5042550;28;20116;-34
2024/04/07 02:02:02;;;;;;;2.58;2.22;;;9.50;99.90;;;;;;5039351;28;20810;-36
2024/04/07 02:04:28;;;;;;;3.20;2.33;;;9.60;99.90;;;;;;5041945;28;20040;-34
2024/04/07 02:06:54;;;;;;;4.05;2.65;;;9.50;99.90;;;;;;5042088;28;20025;-39
2024/04/07 02:09:20;;;;;;;2.70;2.40;;;9.30;99.90;;;;;;5041196;28;20025;-33
2024/04/07 02:11:46;;;;;;;2.55;2.35;;;9.30;99.90;;;;;;5040637;28;20518;-38
2024/04/07 02:14:12;;;;;;;3.78;2.75;;;9.40;99.90;;;;;;5041448;28;20038;-36
2024/04/07 02:16:38;;;;;;;4.10;2.60;;;9.40;99.90;;;;;;5036549;28;20133;-36
2024/04/07 02:19:03;;;;;;;2.58;2.38;;;9.40;99.90;;;;;;5038489;28;20430;-34
2024/04/07 02:21:29;;;;;;;3.45;2.40;;;9.40;99.90;;;;;;5040229;28;20021;-39
2024/04/07 02:23:54;;;;;;;3.72;2.63;;;9.40;99.90;;;;;;5037103;28;20111;-40
2024/04/07 02:26:21;;;;;;;2.85;2.42;;;9.30;99.90;;;;;;5043734;28;20107;-33
2024/04/07 02:28:47;;;;;;;3.42;2.47;;;9.10;99.90;;;;;;5042325;28;20037;-33
2024/04/07 02:31:13;;;;;;;2.58;2.17;;;8.80;99.90;;;;;;5041155;28;20044;-37
2024/04/07 02:33:39;;;;;;;3.78;2.40;;;8.70;99.90;;;;;;5041457;28;20091;-33
2024/04/07 02:36:06;;;;;;;3.55;2.30;;;8.60;99.90;;;;;;5042603;28;20063;-35
2024/04/07 02:38:32;;;;;;;3.20;2.28;;;8.60;99.90;;;;;;5043196;28;20021;-34
2024/04/07 02:40:57;;;;;;;4.68;2.45;;;8.70;99.90;;;;;;5043051;28;22070;-32
2024/04/07 02:43:23;;;;;;;4.25;2.47;;;8.60;99.90;;;;;;5039868;28;20083;-34
2024/04/07 02:48:33;;;;;;;2.40;2.20;;;8.40;99.90;;;;;;5037175;28;20055;-35
2024/04/07 02:50:58;;;;;;;3.50;2.50;;;8.30;99.90;;;;;;5042230;28;20033;-35
2024/04/07 02:53:24;;;;;;;3.53;2.40;;;8.30;99.90;;;;;;5042814;28;20234;-35
2024/04/07 02:55:50;;;;;;;2.60;2.40;;;8.40;99.90;;;;;;5040115;28;20054;-32
2024/04/07 02:58:16;;;;;;;2.78;2.30;;;8.50;99.90;;;;;;5042619;28;20534;-32
2024/04/07 03:00:42;;;;;;;2.45;2.15;;;8.60;99.90;;;;;;5041879;28;20090;-36
2024/04/07 03:03:08;;;;;;;2.10;1.85;;;8.60;99.90;;;;;;5041140;28;20112;-33
2024/04/07 03:05:37;;;;;;;2.90;1.92;;;8.70;99.90;;;;;;5039946;28;20225;-35
2024/04/07 03:08:04;;;;;;;2.53;2.03;;;8.80;99.90;;;;;;5038763;28;20037;-36
2024/04/07 03:10:30;;;;;;;2.97;1.92;;;8.60;99.90;;;;;;5041574;28;20422;-33
2024/04/07 03:12:56;;;;;;;2.50;2.08;;;8.50;99.90;;;;;;5059313;28;20032;-34
2024/04/07 03:15:21;;;;;;;2.47;1.80;;;8.60;99.90;;;;;;5046650;28;20041;-38
2024/04/07 03:17:47;;;;;;;2.15;1.90;;;8.60;99.90;;;;;;5045584;28;20032;-35
2024/04/07 03:20:13;;;;;;;3.63;2.22;;;8.50;99.90;;;;;;5046700;28;20118;-40
2024/04/07 03:22:38;;;;;;;2.35;2.05;;;8.40;99.90;;;;;;5046787;28;20417;-33
2024/04/07 03:25:04;;;;;;;3.22;2.40;;;8.40;99.90;;;;;;5045383;28;20025;-33
2024/04/07 03:27:30;;;;;;;2.22;2.03;;;8.40;99.90;;;;;;5046013;28;20383;-33
2024/04/07 03:29:55;;;;;;;4.05;2.20;;;8.50;99.90;;;;;;5042456;28;20033;-34
2024/04/07 03:32:21;;;;;;;2.05;1.90;;;8.50;99.90;;;;;;5027555;28;20115;-32
2024/04/07 03:34:47;;;;;;;3.53;2.10;;;8.50;99.90;;;;;;5024796;28;20029;-32
2024/04/07 03:37:13;;;;;;;2.95;2.05;;;8.50;99.90;;;;;;5026632;28;20040;-39
2024/04/07 03:39:39;;;;;;;2.40;2.20;;;8.10;99.90;;;;;;5024915;28;20025;-36
2024/04/07 03:42:05;;;;;;;4.35;2.50;;;7.60;99.90;;;;;;5026358;28;20030;-33
2024/04/07 03:44:32;;;;;;;2.53;2.33;;;7.50;99.90;;;;;;5026282;28;20471;-34
2024/04/07 03:46:58;;;;;;;2.60;2.40;;;7.70;99.90;;;;;;5040865;28;20045;-33
2024/04/07 03:49:25;;;;;;;2.53;2.33;;;7.90;99.90;;;;;;5025904;28;20021;-35
2024/04/07 03:51:51;;;;;;;2.78;2.20;;;7.90;99.90;;;;;;5026353;28;20022;-35
2024/04/07 03:54:18;;;;;;;2.05;1.85;;;8.00;99.90;;;;;;5023141;28;20029;-36
2024/04/07 03:56:43;;;;;;;2.97;2.13;;;7.80;99.90;;;;;;5027059;28;20037;-37
2024/04/07 03:59:09;;;;;;;2.38;2.22;;;7.80;99.90;;;;;;5026329;28;20030;-35
2024/04/07 04:01:35;;;;;;;3.28;2.53;;;7.30;99.90;;;;;;5022672;28;20514;-36
2024/04/07 04:04:01;;;;;;;3.13;0.93;;;7.50;99.90;;;;;;5036379;28;20068;-33
2024/04/07 04:06:28;;;;;;;2.42;2.22;;;7.10;99.90;;;;;;5020958;28;20133;-35
2024/04/07 04:08:53;;;;;;;2.70;2.30;;;6.80;99.90;;;;;;5021464;28;20151;-34
2024/04/07 04:11:19;;;;;;;4.25;2.20;;;7.00;99.90;;;;;;5023452;28;20109;-34
2024/04/07 04:13:49;;;;;;;2.97;2.30;;;7.10;99.90;;;;;;5022181;28;20033;-38
2024/04/07 04:16:18;;;;;;;3.63;2.30;;;7.30;99.90;;;;;;5024317;28;20441;-36
2024/04/07 04:18:44;;;;;;;3.38;2.38;;;7.40;99.90;;;;;;5019286;28;20172;-39
2024/04/07 04:21:10;;;;;;;2.25;2.05;;;7.50;99.90;;;;;;5017886;28;21008;-36
2024/04/07 04:23:37;;;;;;;2.40;2.20;;;7.60;99.90;;;;;;5021332;28;20423;-38
2024/04/07 04:26:03;;;;;;;2.58;2.38;;;7.60;99.90;;;;;;5024230;28;21871;-34
2024/04/07 04:28:29;;;;;;;2.90;2.70;;;7.50;99.90;;;;;;5024554;28;20486;-37
2024/04/07 04:30:58;;;;;;;2.78;2.45;;;7.50;99.90;;;;;;5019908;28;20065;-33
2024/04/07 04:33:26;;;;;;;2.90;2.40;;;7.50;99.90;;;;;;5020299;28;20037;-35
2024/04/07 04:35:52;;;;;;;3.97;2.30;;;7.50;99.90;;;;;;5022525;28;20119;-36
2024/04/07 04:38:18;;;;;;;3.63;2.70;;;7.60;99.90;;;;;;5020114;28;20029;-35
2024/04/07 04:40:54;;;;;;;3.42;2.58;;;7.50;99.90;;;;;;5021770;28;20033;-37
2024/04/07 04:43:21;;;;;;;3.28;2.70;;;7.60;99.90;;;;;;5022017;28;20079;-34
2024/04/07 04:45:48;;;;;;;4.40;2.90;;;7.60;99.90;;;;;;5021990;28;20492;-36
2024/04/07 04:48:14;;;;;;;3.83;3.15;;;7.70;99.90;;;;;;5020153;28;20073;-33
2024/04/07 04:50:40;;;;;;;2.65;2.35;;;7.80;99.90;;;;;;5018589;28;20128;-37
2024/04/07 04:53:06;;;;;;;2.42;2.10;;;7.80;99.90;;;;;;5022739;28;20099;-36
2024/04/07 04:55:32;;;;;;;2.40;2.20;;;7.90;99.90;;;;;;5024746;28;20486;-33
2024/04/07 04:57:58;;;;;;;3.10;2.40;;;7.80;99.90;;;;;;5023632;28;20028;-36
2024/04/07 05:00:27;;;;;;;3.83;3.00;;;7.70;99.90;;;;;;5023144;28;20022;-34
2024/04/07 05:02:53;;;;;;;4.28;2.70;;;7.70;99.90;;;;;;5055536;28;20513;-34
2024/04/07 05:05:18;;;;;;;3.67;2.67;;;7.60;99.90;;;;;;5042968;28;20183;-32
2024/04/07 05:07:44;;;;;;;3.03;2.72;;;7.60;99.90;;;;;;5045012;28;20505;-37
2024/04/07 05:10:09;;;;;;;2.63;2.42;;;7.70;99.90;;;;;;5044835;28;20145;-32
2024/04/07 05:12:35;;;;;;;3.10;2.60;;;7.80;99.90;;;;;;5044508;28;20037;-33
2024/04/07 05:15:01;;;;;;;2.80;2.50;;;7.80;99.90;;;;;;5043247;28;20028;-33
2024/04/07 05:17:26;;;;;;;3.72;2.50;;;7.70;99.90;;;;;;5043181;28;20029;-38
2024/04/07 05:19:52;;;;;;;2.72;2.50;;;7.50;99.90;;;;;;5041509;28;20035;-34
2024/04/07 05:22:18;;;;;;;2.78;2.55;;;7.30;99.90;;;;;;5040581;28;20036;-35
2024/04/07 05:24:44;;;;;;;2.97;2.42;;;7.40;99.90;;;;;;5038897;28;20745;-39
2024/04/07 05:27:09;;;;;;;4.57;2.47;;;7.30;99.90;;;;;;5039492;28;20113;-33
2024/04/07 05:29:35;;;;;;;3.70;2.30;;;7.40;99.90;;;;;;5045300;28;20729;-33
2024/04/07 05:32:00;;;;;;;3.85;2.72;;;7.50;99.90;;;;;;5030274;28;20037;-39
2024/04/07 05:34:29;;;;;;;2.30;2.10;;;7.40;99.90;;;;;;5024106;28;20558;-36
2024/04/07 05:36:55;;;;;;;2.47;2.28;;;7.50;99.90;;;;;;5022009;28;20038;-34
2024/04/07 05:39:21;;;;;;;3.10;2.35;;;7.50;99.90;;;;;;5018286;28;20025;-34
2024/04/07 05:41:48;;;;;;;5.68;2.58;;;7.60;99.90;;;;;;5021096;28;20079;-35
2024/04/07 05:44:14;;;;;;;3.13;2.40;;;7.60;99.90;;;;;;5019441;28;20036;-37
2024/04/07 05:46:39;;;;;;;3.65;3.00;;;7.80;99.90;;;;;;5020690;28;20531;-39
2024/04/07 05:49:05;;;;;;;3.13;2.15;;;7.80;99.90;;;;;;5023575;28;20091;-40
2024/04/07 05:51:31;;;;;;;4.57;2.70;;;7.90;99.90;;;;;;5020621;28;20569;-42
2024/04/07 05:53:56;;;;;;;2.70;2.50;;;7.90;99.90;;;;;;5019677;28;20411;-40
2024/04/07 05:56:22;;;;;;;2.90;2.58;;;8.00;99.90;;;;;;5019154;28;20041;-39
2024/04/07 05:58:48;;;;;;;2.97;2.55;;;8.00;99.90;;;;;;5020190;28;20025;-37
2024/04/07 06:01:14;;;;;;;4.22;2.90;;;8.00;99.90;;;;;;5019789;28;20610;-41
2024/04/07 06:03:40;;;;;;;4.50;2.95;;;8.00;99.90;;;;;;5020498;28;20031;-39
2024/04/07 06:06:05;;;;;;;3.50;2.50;;;8.20;99.90;;;;;;5022994;28;20704;-42
2024/04/07 06:08:31;;;;;;;2.55;2.08;;;8.20;99.90;;;;;;5017911;28;20044;-42
2024/04/07 06:10:59;;;;;;;2.75;2.55;;;8.30;99.90;;;;;;5021569;28;20037;-39
2024/04/07 06:13:25;;;;;;;3.78;3.03;;;8.40;99.90;;;;;;5022527;28;20490;-39
2024/04/07 06:15:50;;;;;;;2.67;2.20;;;8.50;99.90;;;;;;5021367;28;20057;-41
2024/04/07 06:18:16;;;;;;;3.20;2.63;;;8.60;99.90;;;;;;5022760;28;20040;-41
2024/04/07 06:20:42;;;;;;;4.95;3.40;;;8.70;99.90;;;;;;5020626;28;20026;-39
2024/04/07 06:23:08;;;;;;;2.83;2.45;;;8.90;99.90;;;;;;5018950;28;20041;-37
2024/04/07 06:25:33;;;;;;;3.90;2.80;;;9.10;99.90;;;;;;5019884;28;20025;-41
2024/04/07 06:27:59;;;;;;;4.47;3.33;;;9.20;99.90;;;;;;5021594;28;20568;-42
2024/04/07 06:30:24;;;;;;;2.97;2.55;;;9.30;99.90;;;;;;5018865;28;20031;-40
2024/04/07 06:32:50;;;;;;;3.92;2.60;;;9.40;99.90;;;;;;5017229;28;22678;-42
2024/04/07 06:35:16;;;;;;;3.47;2.72;;;9.40;99.90;;;;;;5022975;28;20160;-41
2024/04/07 06:37:41;;;;;;;3.20;2.63;;;9.40;99.90;;;;;;5019837;28;20079;-38
2024/04/07 06:40:08;;;;;;;3.60;3.08;;;9.60;99.90;;;;;;5022387;28;20021;-35
2024/04/07 06:42:33;;;;;;;4.57;3.00;;;9.70;99.90;;;;;;5019239;28;20025;-35
2024/04/07 06:44:59;;;;;;;2.70;2.25;;;9.80;99.90;;;;;;5020109;28;20103;-33
2024/04/07 06:47:27;;;;;;;2.85;2.33;;;10.00;99.90;;;;;;5022195;28;20132;-34
2024/04/07 06:49:54;;;;;;;3.75;2.70;;;10.20;99.90;;;;;;5024921;28;20391;-34
2024/04/07 06:52:21;;;;;;;2.97;2.75;;;10.30;99.90;;;;;;5023278;28;20041;-36
2024/04/07 06:54:47;;;;;;;3.30;2.88;;;10.40;99.90;;;;;;5024153;28;20041;-35
2024/04/07 06:57:14;;;;;;;3.38;2.50;;;10.50;99.90;;;;;;5023371;28;20037;-36
2024/04/07 06:59:40;;;;;;;3.65;2.85;;;10.60;99.90;;;;;;5025871;28;20402;-37
2024/04/07 07:02:06;;;;;;;3.60;3.00;;;10.80;99.90;;;;;;5015268;28;20037;-34
2024/04/07 07:04:32;;;;;;;2.92;2.53;;;11.00;99.90;;;;;;5023585;28;20060;-37
2024/04/07 07:06:58;;;;;;;2.63;2.28;;;11.30;99.90;;;;;;5022617;28;20458;-32
2024/04/07 07:09:23;;;;;;;3.33;2.80;;;11.40;99.90;;;;;;5021434;28;20543;-33
2024/04/07 07:11:49;;;;;;;3.20;2.70;;;11.60;99.90;;;;;;5022140;28;20029;-33
2024/04/07 07:14:14;;;;;;;2.88;2.55;;;11.80;99.90;;;;;;5025908;28;20107;-33
2024/04/07 07:16:40;;;;;;;4.13;2.40;;;12.10;99.90;;;;;;5025666;28;20562;-40
2024/04/07 07:19:06;;;;;;;2.33;2.13;;;12.30;99.90;;;;;;5023418;28;20029;-33
2024/04/07 07:21:32;;;;;;;4.00;2.63;;;12.60;99.90;;;;;;5024421;28;20026;-31
2024/04/07 07:23:58;;;;;;;4.00;1.90;;;12.90;99.90;;;;;;5019578;28;20753;-35
2024/04/07 07:26:23;;;;;;;2.35;2.00;;;13.00;99.90;;;;;;5022066;28;20025;-35
2024/04/07 07:28:49;;;;;;;6.18;2.05;;;13.30;99.90;;;;;;5038573;28;20463;-34
2024/04/07 07:31:19;;;;;;;3.95;1.88;;;13.50;99.90;;;;;;5023708;28;20037;-36
2024/04/07 07:33:45;;;;;;;2.92;2.08;;;13.60;99.90;;;;;;5019579;28;20025;-38
2024/04/07 07:36:10;;;;;;;2.45;2.03;;;13.80;99.90;;;;;;5021006;28;20487;-36
2024/04/07 07:38:36;;;;;;;2.15;2.00;;;14.00;99.90;;;;;;5023142;28;20446;-34
2024/04/07 07:41:02;;;;;;;2.15;1.80;;;14.20;99.90;;;;;;5020490;28;20076;-33
2024/04/07 07:43:27;;;;;;;2.13;1.92;;;14.50;99.90;;;;;;5025041;28;20057;-34
2024/04/07 07:45:54;;;;;;;3.05;1.80;;;14.70;99.90;;;;;;5022556;28;20483;-33
2024/04/07 07:48:19;;;;;;;2.67;1.63;;;14.90;99.90;;;;;;5021790;28;20103;-32
2024/04/07 07:50:45;;;;;;;2.60;1.80;;;15.00;99.90;;;;;;5020110;28;20017;-39
2024/04/07 07:53:10;;;;;;;3.58;1.75;;;15.20;99.90;;;;;;5024637;28;20044;-35
2024/04/07 07:55:37;;;;;;;2.00;1.80;;;15.50;99.90;;;;;;5025254;28;20030;-35
2024/04/07 07:58:03;;;;;;;2.30;1.77;;;15.60;99.90;;;;;;5024620;28;20026;-37
2024/04/07 08:00:29;;;;;;;1.60;1.42;;;15.90;99.90;;;;;;5020460;28;20087;-35
2024/04/07 08:02:54;;;;;;;1.70;1.42;;;16.10;97.00;;;;;;5020410;28;20024;-37
2024/04/07 08:05:20;;;;;;;2.90;1.98;;;16.40;95.80;;;;;;5020629;28;20038;-39
2024/04/07 08:07:46;;;;;;;1.35;1.25;;;16.60;95.80;;;;;;5020090;28;20036;-35
2024/04/07 08:10:12;;;;;;;1.15;1.00;;;16.90;92.70;;;;;;5020348;28;20443;-33
2024/04/07 08:12:40;;;;;;;1.30;1.08;;;17.10;76.00;;;;;;5021443;28;20138;-33
2024/04/07 08:15:06;;;;;;;1.65;1.33;;;17.30;72.30;;;;;;5019616;28;20045;-33
2024/04/07 08:17:32;;;;;;;1.70;1.05;;;17.30;73.30;;;;;;5021034;28;20029;-34
2024/04/07 08:19:58;;;;;;;2.47;1.30;;;17.40;69.80;;;;;;5020436;28;20029;-35
2024/04/07 08:22:24;;;;;;;1.42;1.30;;;17.70;82.70;;;;;;5020527;28;20372;-36
2024/04/07 08:24:50;;;;;;;1.33;1.20;;;17.80;68.90;;;;;;5021105;28;20029;-32
2024/04/07 08:27:15;;;;;;;3.30;1.65;;;18.00;74.70;;;;;;5017692;28;20064;-36
2024/04/07 08:29:41;;;;;;;1.10;1.02;;;18.10;69.40;;;;;;5017383;28;20029;-37
2024/04/07 08:32:07;;;;;;;1.75;1.30;;;18.20;71.50;;;;;;5021856;28;20064;-36
2024/04/07 08:34:33;;;;;;;2.38;1.10;;;18.30;71.70;;;;;;5021393;28;20033;-35
2024/04/07 08:36:58;;;;;;;1.33;1.10;;;18.50;71.30;;;;;;5023675;28;20033;-36
2024/04/07 08:39:24;;;;;;;1.92;1.17;;;18.70;66.30;;;;;;5022415;28;20037;-37
2024/04/07 08:41:50;;;;;;;1.52;1.00;;;18.80;67.70;;;;;;5020277;28;20066;-35
2024/04/07 08:44:18;;;;;;;1.00;1.00;;;19.00;69.90;;;;;;5018038;28;20029;-33
2024/04/07 08:46:45;;;;;;;3.15;1.10;;;19.30;73.40;;;;;;5021451;28;20035;-36
2024/04/07 08:49:13;;;;;;;2.15;1.17;;;19.30;64.70;;;;;;5020926;28;20039;-39
2024/04/07 08:51:41;;;;;;;1.00;0.90;;;19.40;66.90;;;;;;5020239;28;20029;-37
2024/04/07 08:54:08;;;;;;;2.63;1.17;;;19.70;63.20;;;;;;5021842;28;20033;-33
2024/04/07 08:56:38;;;;;;;2.90;1.10;;;19.90;70.10;;;;;;5037361;28;20063;-33
2024/04/07 08:59:08;;;;;;;2.50;1.23;;;20.20;66.00;;;;;;5021411;28;20810;-33
2024/04/07 09:01:36;;;;;;;2.03;1.40;;;20.40;67.30;;;;;;5019278;28;20041;-32
2024/04/07 09:04:02;;;;;;;2.03;1.00;;;20.50;58.90;;;;;;5019979;28;20025;-33
2024/04/07 09:06:29;;;;;;;2.08;1.60;;;20.50;54.80;;;;;;5021427;28;20703;-32
2024/04/07 09:08:58;;;;;;;1.85;0.90;;;20.70;54.70;;;;;;5022285;28;20037;-33
2024/04/07 09:11:24;;;;;;;1.20;0.85;;;20.90;51.20;;;;;;5022526;28;20441;-33
2024/04/07 09:13:50;;;;;;;1.88;1.25;;;20.90;53.20;;;;;;5021989;28;20033;-35
2024/04/07 09:16:16;;;;;;;1.77;1.00;;;21.10;53.90;;;;;;5023702;28;20406;-33
2024/04/07 09:18:42;;;;;;;4.70;1.35;;;21.30;50.90;;;;;;5020839;28;20041;-35
2024/04/07 09:21:19;;;;;;;2.97;1.00;;;21.40;51.40;;;;;;5021288;28;20033;-32
2024/04/07 09:23:46;;;;;;;4.47;1.20;;;21.60;54.90;;;;;;5020351;28;20026;-37
2024/04/07 09:26:14;;;;;;;1.85;1.38;;;21.60;60.70;;;;;;5018156;28;20033;-33
2024/04/07 09:28:40;;;;;;;;;;;21.70;55.00;;;;;;5021021;28;20390;-36
2024/04/07 09:31:06;;;;;;;2.65;0.93;;;21.90;49.40;;;;;;5021060;28;19913;-39
2024/04/07 09:33:33;;;;;;;1.67;1.00;;;21.80;44.10;;;;;;5020852;28;20116;-40
2024/04/07 09:35:59;;;;;;;3.72;1.20;;;21.80;48.00;;;;;;5017368;28;20061;-40
2024/04/07 09:38:25;;;;;;;6.95;1.30;;;22.00;46.30;;;;;;5019355;28;20043;-41
2024/04/07 09:40:55;;;;;;;5.50;1.33;;;22.10;48.80;;;;;;5020544;28;20041;-40
2024/04/07 09:43:24;;;;;;;5.28;1.52;;;22.20;51.40;;;;;;5019840;28;20061;-40
2024/04/07 09:45:52;;;;;;;1.75;1.15;;;22.40;48.60;;;;;;5020207;28;20029;-41
2024/04/07 09:48:20;;;;;;;3.70;1.20;;;22.50;51.70;;;;;;5022737;28;20045;-40
2024/04/07 09:51:05;;;;;;;2.63;1.10;;;22.70;49.50;;;;;;5017878;28;20033;-37
2024/04/07 09:53:41;;;;;;;2.67;0.98;;;22.60;49.80;;;;;;5019737;28;20387;-38
2024/04/07 09:56:11;;;;;;;2.22;1.02;;;22.60;48.80;;;;;;5016516;28;20068;-41
2024/04/07 09:58:38;;;;;;;3.45;1.40;;;22.50;47.50;;;;;;5019911;28;20029;-40
2024/04/07 10:01:05;;;;;;;3.10;1.10;;;22.40;47.30;;;;;;5017963;28;20033;-40
2024/04/07 10:03:32;;;;;;;4.95;1.30;;;22.50;46.70;;;;;;5018900;28;20029;-40
2024/04/07 10:06:00;;;;;;;5.25;1.13;;;22.50;49.50;;;;;;5020219;28;20048;-41
2024/04/07 10:08:26;;;;;;;6.57;1.27;;;22.60;45.00;;;;;;5018531;28;20076;-41
2024/04/07 10:10:52;;;;;;;5.88;1.40;;;22.80;51.50;;;;;;5019407;28;20045;-41
2024/04/07 10:13:23;;;;;;;5.63;1.33;;;22.90;43.20;;;;;;5019802;28;20025;-41
2024/04/07 10:15:50;;;;;;;3.92;1.50;;;23.00;41.80;;;;;;5020429;28;20475;-39
2024/04/07 10:18:17;;;;;;;3.63;1.00;;;22.90;43.30;;;;;;5023470;28;20026;-41
2024/04/07 10:20:44;;;;;;;4.33;1.73;;;23.00;41.10;;;;;;5020076;28;20071;-40
2024/04/07 10:23:12;;;;;;;4.45;1.38;;;22.90;44.60;;;;;;5016464;28;20041;-41
2024/04/07 10:25:46;;;;;;;6.13;2.25;;;23.00;43.70;;;;;;5020863;28;20472;-37
2024/04/07 10:28:12;;;;;;;3.15;1.30;;;23.10;49.60;;;;;;5030739;28;20041;-39
2024/04/07 10:30:51;;;;;;;3.30;0.90;;;23.10;45.50;;;;;;5019654;28;20434;-37
2024/04/07 10:33:21;;;;;;;5.30;1.20;;;23.10;44.20;;;;;;5017939;28;20451;-41
2024/04/07 10:35:57;;;;;;;4.28;1.15;;;23.10;48.30;;;;;;5021401;28;20072;-40
2024/04/07 10:38:26;;;;;;;3.13;1.20;;;23.10;48.00;;;;;;5032630;28;20041;-38
2024/04/07 10:40:52;;;;;;;4.75;1.50;;;23.20;47.40;;;;;;5018626;28;20056;-32
2024/04/07 10:43:19;;;;;;;4.22;1.58;;;23.10;40.50;;;;;;5018952;28;20037;-37
2024/04/07 10:45:45;;;;;;;5.85;1.58;;;23.00;45.50;;;;;;5018413;28;20037;-33
2024/04/07 10:48:10;;;;;;;7.28;1.58;;;23.00;41.20;;;;;;5018017;28;20057;-34
2024/04/07 10:50:36;;;;;;;4.45;1.27;;;23.00;41.30;;;;;;5019577;28;20620;-35
2024/04/07 10:53:06;;;;;;;4.53;1.38;;;23.00;38.30;;;;;;5018267;28;20029;-36
2024/04/07 10:55:37;;;;;;;2.75;0.88;;;23.20;39.40;;;;;;5019715;28;20044;-34
2024/04/07 10:58:03;;;;;;;5.70;1.15;;;23.40;45.20;;;;;;5018860;28;20084;-34
2024/04/07 11:00:29;;;;;;;6.38;1.92;;;23.40;39.90;;;;;;5016862;28;20037;-34
2024/04/07 11:02:55;;;;;;;7.03;1.60;;;23.50;43.40;;;;;;5033780;28;20473;-31
2024/04/07 11:05:21;;;;;;;5.88;2.38;;;23.70;40.20;;;;;;5019987;28;20036;-34
2024/04/07 11:07:47;;;;;;;6.70;1.40;;;23.70;37.90;;;;;;5017678;28;20040;-34
2024/04/07 11:10:14;;;;;;;4.07;1.63;;;23.80;38.50;;;;;;5018118;28;20038;-33
2024/04/07 11:12:42;;;;;;;6.53;1.37;;;24.00;41.20;;;;;;5017286;28;20025;-37
2024/04/07 11:15:18;;;;;;;3.80;1.10;;;24.00;36.20;;;;;;5020104;28;20288;-34
2024/04/07 11:17:45;;;;;;;4.97;1.23;;;23.80;35.70;;;;;;5016177;28;20558;-37
2024/04/07 11:20:12;;;;;;;6.43;1.13;;;23.80;35.80;;;;;;5017276;28;20434;-33
2024/04/07 11:22:39;;;;;;;2.38;1.08;;;23.80;40.10;;;;;;5020461;28;21608;-35
2024/04/07 11:25:05;;;;;;;4.72;1.50;;;23.70;33.90;;;;;;5018458;28;20037;-33
2024/04/07 11:27:31;;;;;;;6.50;2.28;;;23.70;33.20;;;;;;5016194;28;20038;-32
2024/04/07 11:29:56;;;;;;;14.13;1.85;;;23.70;34.60;;;;;;5015239;28;20033;-36
2024/04/07 11:32:27;;;;;;;4.28;1.55;;;23.80;34.60;;;;;;5018160;28;20519;-33
2024/04/07 11:34:53;;;;;;;10.25;1.65;;;23.80;32.90;;;;;;5022862;28;20120;-33
2024/04/07 11:37:19;;;;;;;9.45;1.70;;;24.00;38.90;;;;;;5021748;28;20044;-34
2024/04/07 11:39:50;;;;;;;7.07;1.90;;;24.40;36.90;;;;;;5021461;28;20094;-37
2024/04/07 11:42:15;;;;;;;8.07;1.67;;;24.60;34.20;;;;;;5021920;28;20025;-39
2024/04/07 11:44:41;;;;;;;8.45;2.13;;;24.50;36.00;;;;;;5021511;28;20032;-38
2024/04/07 11:47:07;;;;;;;6.85;1.42;;;24.60;32.30;;;;;;5022358;28;20045;-39
2024/04/07 11:49:33;;;;;;;8.77;1.88;;;24.40;36.00;;;;;;5022982;28;20446;-40
2024/04/07 11:51:59;;;;;;;5.90;1.30;;;24.20;34.20;;;;;;5023149;28;20037;-39
2024/04/07 11:54:24;;;;;;;7.25;1.80;;;24.20;33.90;;;;;;5019896;28;20041;-40
2024/04/07 11:56:51;;;;;;;5.78;1.67;;;24.00;38.90;;;;;;5018967;28;20574;-40
2024/04/07 11:59:17;;;;;;;8.18;1.60;;;24.00;38.20;;;;;;5024357;28;20025;-39
2024/04/07 12:01:43;;;;;;;6.18;2.05;;;24.10;40.00;;;;;;5023461;28;20739;-41
2024/04/07 12:04:08;;;;;;;3.95;1.50;;;24.00;36.30;;;;;;5022426;28;20025;-38
2024/04/07 12:06:34;;;;;;;10.57;2.20;;;24.10;39.40;;;;;;5020570;28;20045;-36
2024/04/07 12:09:00;;;;;;;4.22;1.60;;;24.10;35.60;;;;;;5022813;28;20036;-41
2024/04/07 12:11:25;;;;;;;11.18;1.85;;;24.00;35.90;;;;;;5021561;28;20435;-40
2024/04/07 12:13:51;;;;;;;8.38;1.52;;;24.20;35.00;;;;;;5021244;28;20344;-39
2024/04/07 12:16:18;;;;;;;5.97;1.60;;;24.30;31.80;;;;;;5021594;28;20026;-39
2024/04/07 12:18:43;;;;;;;4.85;1.40;;;24.40;33.30;;;;;;5021702;28;20085;-37
2024/04/07 12:21:09;;;;;;;5.03;1.60;;;24.70;32.30;;;;;;5018187;28;20510;-40
2024/04/07 12:23:35;;;;;;;6.63;1.75;;;24.50;30.70;;;;;;5017837;28;20533;-41
2024/04/07 12:26:00;;;;;;;11.30;1.85;;;24.60;33.70;;;;;;5016780;28;20465;-40
2024/04/07 12:28:26;;;;;;;8.25;1.40;;;24.80;30.20;;;;;;5019725;28;20033;-40
2024/04/07 12:30:53;;;;;;;6.43;1.38;;;24.70;32.50;;;;;;5021695;28;20044;-38
2024/04/07 12:33:18;;;;;;;10.82;1.60;;;24.60;33.50;;;;;;5020143;28;20040;-42
2024/04/07 12:35:44;;;;;;;4.15;1.27;;;24.70;31.00;;;;;;5020466;28;20037;-36
2024/04/07 12:38:10;;;;;;;13.50;1.40;;;24.90;33.10;;;;;;5018281;28;20037;-40
2024/04/07 12:40:35;;;;;;;8.32;1.52;;;24.90;29.10;;;;;;5021013;28;20072;-41
2024/04/07 12:43:01;;;;;;;5.47;1.52;;;24.80;30.80;;;;;;5035357;28;20033;-39
2024/04/07 12:45:28;;;;;;;4.97;1.35;;;24.80;31.20;;;;;;5021599;28;20029;-41
2024/04/07 12:47:54;;;;;;;7.60;2.72;;;24.40;31.20;;;;;;5017694;28;20053;-41
2024/04/07 12:50:19;;;;;;;4.97;1.80;;;24.30;33.70;;;;;;5022281;28;20140;-40